createdAt,value
2023-02-15T00:01:12.356Z,3.25
2023-02-15T00:06:14.842Z,3.25
2023-02-15T00:11:39.553Z,3.71
2023-02-15T00:16:43.829Z,3.08
2023-02-15T00:21:47.026Z,3.30
2023-02-15T00:26:50.404Z,3.26
2023-02-15T00:31:53.605Z,3.06
2023-02-15T00:36:56.560Z,2.87
2023-02-15T00:41:59.108Z,2.75
2023-02-15T00:47:01.565Z,2.74
2023-02-15T00:52:04.144Z,2.65
2023-02-15T00:57:06.715Z,3.00
2023-02-15T01:02:09.236Z,2.92
2023-02-15T01:07:11.674Z,3.43
2023-02-15T01:12:14.117Z,3.07
2023-02-15T01:17:16.528Z,2.65
2023-02-15T01:22:20.395Z,2.51
2023-02-15T01:27:23.314Z,2.78
2023-02-15T01:32:26.130Z,2.63
2023-02-15T01:37:28.771Z,2.77
2023-02-15T01:42:31.392Z,2.42
2023-02-15T01:47:41.647Z,2.63
2023-02-15T01:52:56.853Z,2.22
2023-02-15T01:57:59.683Z,2.72
2023-02-15T02:03:02.714Z,2.83
2023-02-15T02:08:05.643Z,2.57
2023-02-15T02:13:08.563Z,2.41
2023-02-15T02:18:34.143Z,2.31
2023-02-15T02:23:57.778Z,2.38
2023-02-15T02:29:00.150Z,3.14
2023-02-15T02:34:05.174Z,2.55
2023-02-15T02:39:35.838Z,2.12
2023-02-15T02:45:16.681Z,2.03
2023-02-15T02:50:29.255Z,1.93
2023-02-15T02:55:59.834Z,2.15
2023-02-15T03:01:15.030Z,2.67
2023-02-15T03:06:27.497Z,2.47
2023-02-15T03:11:30.876Z,3.12
2023-02-15T03:16:34.044Z,3.87
2023-02-15T03:21:39.571Z,3.97
2023-02-15T03:26:47.247Z,3.77
2023-02-15T03:31:56.520Z,3.64
2023-02-15T03:37:11.055Z,3.71
2023-02-15T03:42:26.038Z,3.98
2023-02-15T03:47:33.414Z,3.73
2023-02-15T03:52:38.274Z,4.06
2023-02-15T03:57:59.543Z,4.00
2023-02-15T04:03:28.161Z,3.19
2023-02-15T04:08:49.144Z,2.66
2023-02-15T04:13:57.452Z,3.15
2023-02-15T04:19:18.766Z,3.36
2023-02-15T04:24:40.153Z,3.47
2023-02-15T04:29:42.594Z,3.61
2023-02-15T04:34:45.166Z,4.09
2023-02-15T04:39:47.563Z,4.49
2023-02-15T04:44:50.304Z,4.64
2023-02-15T04:49:52.892Z,4.48
2023-02-15T04:54:55.501Z,4.69
2023-02-15T05:00:00.061Z,4.79
2023-02-15T05:05:02.672Z,4.76
2023-02-15T05:10:05.457Z,4.12
2023-02-15T05:15:08.395Z,3.94
2023-02-15T05:20:11.158Z,3.45
2023-02-15T05:25:32.527Z,3.83
2023-02-15T05:30:35.197Z,4.42
2023-02-15T05:35:37.823Z,4.62
2023-02-15T05:40:40.223Z,4.74
2023-02-15T05:45:46.770Z,4.53
2023-02-15T05:51:02.528Z,4.41
2023-02-15T05:56:06.829Z,4.38
2023-02-15T06:01:14.630Z,4.57
2023-02-15T06:06:17.074Z,4.64
2023-02-15T06:11:19.469Z,4.40
2023-02-15T06:16:22.243Z,4.36
2023-02-15T06:21:24.744Z,4.22
2023-02-15T06:26:27.233Z,4.22
2023-02-15T06:31:29.752Z,4.48
2023-02-15T06:36:33.003Z,4.46
2023-02-15T06:41:35.516Z,4.36
2023-02-15T06:46:38.011Z,4.33
2023-02-15T06:51:40.534Z,4.08
2023-02-15T06:56:44.540Z,3.86
2023-02-15T07:01:47.016Z,4.03
2023-02-15T07:06:49.536Z,4.23
2023-02-15T07:12:10.724Z,4.39
2023-02-15T07:17:34.461Z,4.71
2023-02-15T07:22:37.355Z,4.65
2023-02-15T07:27:40.346Z,4.24
2023-02-15T07:33:04.986Z,4.38
2023-02-15T07:38:08.050Z,4.37
2023-02-15T07:43:10.492Z,4.31
2023-02-15T07:48:12.933Z,4.28
2023-02-15T07:53:15.635Z,4.32
2023-02-15T07:58:18.043Z,4.43
2023-02-15T08:03:21.175Z,4.41
2023-02-15T08:08:32.993Z,4.47
2023-02-15T08:13:35.387Z,4.90
2023-02-15T08:18:38.023Z,4.76
2023-02-15T08:23:40.599Z,5.00
2023-02-15T08:28:43.901Z,5.18
2023-02-15T08:33:48.030Z,5.48
2023-02-15T08:38:51.006Z,5.54
2023-02-15T08:43:58.870Z,5.23
2023-02-15T08:49:02.294Z,5.57
2023-02-15T08:54:11.552Z,5.53
2023-02-15T08:59:23.372Z,5.90
2023-02-15T09:04:25.868Z,5.83
2023-02-15T09:09:28.281Z,5.84
2023-02-15T09:14:30.767Z,6.28
2023-02-15T09:19:33.585Z,6.91
2023-02-15T09:24:36.106Z,7.79
2023-02-15T09:29:38.602Z,7.26
2023-02-15T09:34:41.287Z,7.62
2023-02-15T09:39:47.270Z,7.78
2023-02-15T09:45:18.606Z,8.31
2023-02-15T09:50:38.541Z,8.51
2023-02-15T09:55:50.064Z,9.79
2023-02-15T10:01:12.742Z,9.69
2023-02-15T10:06:47.620Z,10.11
2023-02-15T10:12:18.646Z,13.16
2023-02-15T10:17:30.622Z,13.01
2023-02-15T10:22:48.692Z,12.86
2023-02-15T10:27:52.351Z,13.12
2023-02-15T10:32:59.508Z,12.76
2023-02-15T10:38:11.666Z,11.43
2023-02-15T10:43:51.337Z,12.57
2023-02-15T10:49:13.851Z,11.65
2023-02-15T10:54:24.102Z,11.69
2023-02-15T10:59:47.047Z,12.11
2023-02-15T11:05:11.259Z,12.36
2023-02-15T11:10:46.347Z,12.28
2023-02-15T11:16:05.730Z,14.19
2023-02-15T11:21:33.776Z,14.62
2023-02-15T11:26:45.512Z,16.77
2023-02-15T11:32:20.235Z,19.88
2023-02-15T11:37:30.178Z,21.95
2023-02-15T11:42:34.252Z,22.82
2023-02-15T11:47:36.729Z,22.41
2023-02-15T11:52:39.161Z,22.46
2023-02-15T11:57:47.783Z,23.52
2023-02-15T12:02:56.072Z,23.89
2023-02-15T12:08:38.670Z,24.75
2023-02-15T12:14:01.743Z,24.80
2023-02-15T12:19:04.191Z,23.66
2023-02-15T12:24:33.576Z,22.44
2023-02-15T12:29:59.830Z,22.82
2023-02-15T12:35:23.298Z,23.26
2023-02-15T12:40:31.834Z,20.80
2023-02-15T12:45:37.357Z,19.57
2023-02-15T12:50:41.449Z,20.41
2023-02-15T12:55:58.631Z,18.31
2023-02-15T13:01:22.548Z,18.52
2023-02-15T13:06:25.498Z,19.11
2023-02-15T13:11:38.556Z,19.85
2023-02-15T13:16:42.077Z,20.05
2023-02-15T13:21:49.830Z,19.17
2023-02-15T13:27:09.296Z,20.13
2023-02-15T13:32:42.187Z,21.46
2023-02-15T13:38:19.184Z,19.10
2023-02-15T13:43:55.365Z,16.19
2023-02-15T13:49:19.944Z,15.08
2023-02-15T13:54:28.471Z,14.31
2023-02-15T13:59:48.188Z,13.83
2023-02-15T14:05:07.867Z,13.50
2023-02-15T14:10:16.141Z,13.34
2023-02-15T14:15:30.942Z,13.24
2023-02-15T14:21:07.963Z,13.06
2023-02-15T14:26:26.171Z,12.88
2023-02-15T14:31:51.278Z,12.84
2023-02-15T14:36:55.158Z,12.60
2023-02-15T14:42:10.818Z,12.57
2023-02-15T14:47:26.431Z,12.52
2023-02-15T14:52:28.926Z,12.53
2023-02-15T14:57:35.927Z,12.50
2023-02-15T15:02:52.951Z,12.48
2023-02-15T15:07:58.681Z,12.42
2023-02-15T15:13:33.351Z,12.34
2023-02-15T15:18:44.603Z,12.21
2023-02-15T15:23:47.128Z,12.26
2023-02-15T15:28:49.553Z,12.26
2023-02-15T15:34:29.517Z,12.18
2023-02-15T15:39:40.911Z,11.95
2023-02-15T15:45:20.214Z,11.50
2023-02-15T15:50:23.317Z,11.24
2023-02-15T15:55:28.881Z,11.07
2023-02-15T16:00:50.919Z,10.87
2023-02-15T16:05:56.512Z,10.60
2023-02-15T16:11:01.146Z,10.42
2023-02-15T16:16:03.763Z,10.13
2023-02-15T16:21:06.537Z,9.95
2023-02-15T16:26:38.983Z,9.72
2023-02-15T16:31:41.144Z,9.51
2023-02-15T16:36:43.192Z,9.32
2023-02-15T16:41:47.592Z,9.38
2023-02-15T16:46:55.195Z,9.26
2023-02-15T16:52:08.030Z,9.32
2023-02-15T16:57:25.104Z,8.99
2023-02-15T17:02:54.420Z,8.86
2023-02-15T17:08:44.941Z,8.65
2023-02-15T17:14:05.169Z,8.65
2023-02-15T17:19:18.633Z,8.69
2023-02-15T17:24:43.833Z,9.03
2023-02-15T17:29:55.440Z,8.79
2023-02-15T17:35:05.044Z,8.54
2023-02-15T17:40:29.213Z,8.40
2023-02-15T17:45:44.983Z,8.33
2023-02-15T17:50:47.294Z,8.07
2023-02-15T17:55:49.461Z,8.03
2023-02-15T18:01:21.992Z,8.01
2023-02-15T18:06:43.074Z,8.10
2023-02-15T18:11:48.750Z,7.93
2023-02-15T18:16:51.177Z,8.06
2023-02-15T18:21:55.782Z,7.99
2023-02-15T18:26:57.847Z,8.03
2023-02-15T18:32:01.529Z,8.15
2023-02-15T18:37:06.479Z,7.98
2023-02-15T18:42:22.899Z,7.84
2023-02-15T18:47:26.010Z,7.99
2023-02-15T18:52:34.610Z,7.93
2023-02-15T18:57:36.710Z,7.51
2023-02-15T19:02:38.858Z,7.52
2023-02-15T19:07:43.712Z,7.28
2023-02-15T19:12:46.769Z,7.11
2023-02-15T19:17:49.354Z,6.94
2023-02-15T19:22:55.479Z,7.12
2023-02-15T19:27:58.687Z,7.36
2023-02-15T19:33:02.222Z,7.83
2023-02-15T19:38:14.703Z,7.74
2023-02-15T19:43:20.476Z,7.85
2023-02-15T19:48:23.291Z,8.11
2023-02-15T19:53:28.739Z,7.75
2023-02-15T19:58:31.271Z,7.18
2023-02-15T20:03:33.433Z,7.19
2023-02-15T20:08:35.476Z,7.23
2023-02-15T20:13:38.101Z,6.99
2023-02-15T20:18:44.655Z,6.72
2023-02-15T20:23:46.965Z,6.69
2023-02-15T20:28:49.259Z,6.62
2023-02-15T20:33:53.100Z,6.61
2023-02-15T20:38:57.415Z,6.50
2023-02-15T20:43:59.760Z,6.52
2023-02-15T20:49:01.791Z,6.34
2023-02-15T20:54:21.067Z,6.47
2023-02-15T20:59:32.605Z,6.69
2023-02-15T21:04:34.986Z,6.63
2023-02-15T21:09:37.267Z,7.11
2023-02-15T21:14:39.329Z,7.57
2023-02-15T21:19:42.299Z,7.40
2023-02-15T21:24:51.817Z,6.85
2023-02-15T21:29:54.184Z,7.04
2023-02-15T21:34:56.330Z,7.06
2023-02-15T21:39:58.558Z,7.47
2023-02-15T21:45:19.395Z,7.84
2023-02-15T21:50:44.226Z,7.57
2023-02-15T21:55:46.306Z,7.23
2023-02-15T22:00:49.158Z,7.37
2023-02-15T22:05:52.276Z,6.89
2023-02-15T22:10:56.958Z,6.79
2023-02-15T22:15:59.613Z,7.05
2023-02-15T22:21:03.701Z,6.67
2023-02-15T22:26:14.179Z,6.51
2023-02-15T22:31:22.737Z,6.95
2023-02-15T22:36:29.272Z,6.55
2023-02-15T22:41:32.057Z,5.93
2023-02-15T22:46:34.269Z,5.97
2023-02-15T22:51:36.319Z,5.78
2023-02-15T22:56:47.622Z,5.85
2023-02-15T23:01:50.418Z,6.05
2023-02-15T23:06:57.560Z,6.18
2023-02-15T23:11:59.630Z,6.43
2023-02-15T23:17:02.701Z,6.03
2023-02-15T23:22:04.801Z,6.38
2023-02-15T23:27:25.749Z,6.26
2023-02-15T23:32:28.041Z,5.99
2023-02-15T23:37:30.107Z,5.84
2023-02-15T23:42:35.688Z,5.59
2023-02-15T23:47:56.218Z,6.17
2023-02-15T23:52:59.747Z,5.94
2023-02-15T23:58:07.255Z,5.07
